sensor_id;sensor_type;location;lat;lon;timestamp;pressure;altitude;pressure_sealevel;temperature;humidity
38716;BME280;24833;49.324;8.694;2022-12-24T00:01:05;99275.22;;;10.15;100.00
38716;BME280;24833;49.324;8.694;2022-12-24T00:03:33;99279.94;;;10.13;100.00
38716;BME280;24833;49.324;8.694;2022-12-24T00:06:17;99274.81;;;10.11;100.00
38716;BME280;24833;49.324;8.694;2022-12-24T00:08:44;99272.97;;;10.12;100.00
38716;BME280;24833;49.324;8.694;2022-12-24T00:11:11;99262.28;;;10.12;100.00
38716;BME280;24833;49.324;8.694;2022-12-24T00:13:38;99274.00;;;10.10;100.00
38716;BME280;24833;49.324;8.694;2022-12-24T00:16:05;99259.00;;;10.09;100.00
38716;BME280;24833;49.324;8.694;2022-12-24T00:18:32;99254.69;;;10.08;100.00
38716;BME280;24833;49.324;8.694;2022-12-24T00:21:05;99269.06;;;10.07;100.00
38716;BME280;24833;49.324;8.694;2022-12-24T00:23:32;99266.38;;;10.07;100.00
38716;BME280;24833;49.324;8.694;2022-12-24T00:25:59;99284.25;;;10.07;100.00
38716;BME280;24833;49.324;8.694;2022-12-24T00:28:26;99274.59;;;10.06;100.00
38716;BME280;24833;49.324;8.694;2022-12-24T00:30:53;99269.47;;;10.04;100.00
38716;BME280;24833;49.324;8.694;2022-12-24T00:33:20;99274.00;;;10.04;100.00
38716;BME280;24833;49.324;8.694;2022-12-24T00:35:51;99285.88;;;10.01;100.00
38716;BME280;24833;49.324;8.694;2022-12-24T00:38:19;99300.25;;;10.00;100.00
38716;BME280;24833;49.324;8.694;2022-12-24T00:40:46;99305.56;;;10.00;100.00
38716;BME280;24833;49.324;8.694;2022-12-24T00:43:13;99304.97;;;9.98;100.00
38716;BME280;24833;49.324;8.694;2022-12-24T00:45:40;99318.69;;;9.95;100.00
38716;BME280;24833;49.324;8.694;2022-12-24T00:48:07;99312.75;;;9.93;100.00
38716;BME280;24833;49.324;8.694;2022-12-24T00:50:34;99319.09;;;9.92;100.00
38716;BME280;24833;49.324;8.694;2022-12-24T00:53:01;99319.50;;;9.89;100.00
38716;BME280;24833;49.324;8.694;2022-12-24T00:55:28;99323.19;;;9.88;100.00
38716;BME280;24833;49.324;8.694;2022-12-24T00:57:55;99329.75;;;9.86;100.00
38716;BME280;24833;49.324;8.694;2022-12-24T01:00:22;99339.00;;;9.83;100.00
38716;BME280;24833;49.324;8.694;2022-12-24T01:02:49;99333.03;;;9.81;100.00
38716;BME280;24833;49.324;8.694;2022-12-24T01:05:16;99330.56;;;9.79;100.00
38716;BME280;24833;49.324;8.694;2022-12-24T01:07:46;99334.25;;;9.78;100.00
38716;BME280;24833;49.324;8.694;2022-12-24T01:10:17;99334.66;;;9.75;100.00
38716;BME280;24833;49.324;8.694;2022-12-24T01:12:46;99350.84;;;9.74;100.00
38716;BME280;24833;49.324;8.694;2022-12-24T01:15:14;99346.53;;;9.73;100.00
38716;BME280;24833;49.324;8.694;2022-12-24T01:17:41;99345.13;;;9.70;100.00
38716;BME280;24833;49.324;8.694;2022-12-24T01:20:13;99349.81;;;9.68;100.00
38716;BME280;24833;49.324;8.694;2022-12-24T01:22:41;99359.84;;;9.66;100.00
38716;BME280;24833;49.324;8.694;2022-12-24T01:25:08;99358.41;;;9.64;100.00
38716;BME280;24833;49.324;8.694;2022-12-24T01:27:35;99360.44;;;9.62;100.00
38716;BME280;24833;49.324;8.694;2022-12-24T01:30:05;99378.50;;;9.60;100.00
38716;BME280;24833;49.324;8.694;2022-12-24T01:32:32;99376.03;;;9.58;100.00
38716;BME280;24833;49.324;8.694;2022-12-24T01:34:59;99387.06;;;9.55;100.00
38716;BME280;24833;49.324;8.694;2022-12-24T01:37:26;99387.47;;;9.52;100.00
38716;BME280;24833;49.324;8.694;2022-12-24T01:39:53;99387.69;;;9.50;100.00
38716;BME280;24833;49.324;8.694;2022-12-24T01:42:47;99398.13;;;9.45;100.00
38716;BME280;24833;49.324;8.694;2022-12-24T01:45:43;99408.31;;;9.42;100.00
38716;BME280;24833;49.324;8.694;2022-12-24T01:51:03;99409.97;;;9.36;100.00
38716;BME280;24833;49.324;8.694;2022-12-24T01:53:34;99419.34;;;9.32;100.00
38716;BME280;24833;49.324;8.694;2022-12-24T01:56:03;99421.56;;;9.28;100.00
38716;BME280;24833;49.324;8.694;2022-12-24T01:58:33;99417.47;;;9.26;100.00
38716;BME280;24833;49.324;8.694;2022-12-24T02:01:05;99425.03;;;9.22;100.00
38716;BME280;24833;49.324;8.694;2022-12-24T02:03:33;99419.28;;;9.19;100.00
38716;BME280;24833;49.324;8.694;2022-12-24T02:06:00;99392.41;;;9.14;100.00
38716;BME280;24833;49.324;8.694;2022-12-24T02:08:28;99405.28;;;9.10;100.00
38716;BME280;24833;49.324;8.694;2022-12-24T02:11:11;99427.78;;;9.08;100.00
38716;BME280;24833;49.324;8.694;2022-12-24T02:13:38;99432.72;;;9.04;100.00
38716;BME280;24833;49.324;8.694;2022-12-24T02:19:42;99428.34;;;8.96;100.00
38716;BME280;24833;49.324;8.694;2022-12-24T02:22:29;99435.69;;;8.94;100.00
38716;BME280;24833;49.324;8.694;2022-12-24T02:28:22;99415.16;;;8.88;100.00
38716;BME280;24833;49.324;8.694;2022-12-24T02:31:11;99422.31;;;8.88;100.00
38716;BME280;24833;49.324;8.694;2022-12-24T02:33:59;99420.69;;;8.87;100.00
38716;BME280;24833;49.324;8.694;2022-12-24T02:36:57;99423.53;;;8.85;100.00
38716;BME280;24833;49.324;8.694;2022-12-24T02:42:08;99423.91;;;8.82;100.00
38716;BME280;24833;49.324;8.694;2022-12-24T02:44:51;99424.94;;;8.81;100.00
38716;BME280;24833;49.324;8.694;2022-12-24T02:47:22;99432.91;;;8.81;100.00
38716;BME280;24833;49.324;8.694;2022-12-24T02:49:50;99441.94;;;8.80;100.00
38716;BME280;24833;49.324;8.694;2022-12-24T03:01:02;99436.53;;;8.73;100.00
38716;BME280;24833;49.324;8.694;2022-12-24T03:04:22;99440.03;;;8.74;100.00
38716;BME280;24833;49.324;8.694;2022-12-24T03:07:22;99432.03;;;8.74;100.00
38716;BME280;24833;49.324;8.694;2022-12-24T03:13:10;99454.56;;;8.71;100.00
38716;BME280;24833;49.324;8.694;2022-12-24T03:15:40;99443.09;;;8.71;100.00
38716;BME280;24833;49.324;8.694;2022-12-24T03:18:11;99452.91;;;8.70;100.00
38716;BME280;24833;49.324;8.694;2022-12-24T03:20:44;99459.25;;;8.69;100.00
38716;BME280;24833;49.324;8.694;2022-12-24T03:23:12;99469.06;;;8.69;100.00
38716;BME280;24833;49.324;8.694;2022-12-24T03:25:41;99472.72;;;8.68;100.00
38716;BME280;24833;49.324;8.694;2022-12-24T03:28:12;99464.75;;;8.68;100.00
38716;BME280;24833;49.324;8.694;2022-12-24T03:30:42;99463.09;;;8.67;100.00
38716;BME280;24833;49.324;8.694;2022-12-24T03:33:11;99472.09;;;8.66;100.00
38716;BME280;24833;49.324;8.694;2022-12-24T03:35:39;99481.94;;;8.65;100.00
38716;BME280;24833;49.324;8.694;2022-12-24T03:38:05;99490.94;;;8.64;100.00
38716;BME280;24833;49.324;8.694;2022-12-24T03:40:33;99486.25;;;8.66;100.00
38716;BME280;24833;49.324;8.694;2022-12-24T03:43:00;99483.59;;;8.66;100.00
38716;BME280;24833;49.324;8.694;2022-12-24T03:45:27;99479.06;;;8.67;100.00
38716;BME280;24833;49.324;8.694;2022-12-24T03:47:54;99482.38;;;8.69;100.00
38716;BME280;24833;49.324;8.694;2022-12-24T03:50:21;99478.72;;;8.70;100.00
38716;BME280;24833;49.324;8.694;2022-12-24T03:52:47;99483.03;;;8.71;100.00
38716;BME280;24833;49.324;8.694;2022-12-24T03:55:14;99475.84;;;8.71;100.00
38716;BME280;24833;49.324;8.694;2022-12-24T03:57:41;99475.66;;;8.73;100.00
38716;BME280;24833;49.324;8.694;2022-12-24T04:00:09;99475.47;;;8.74;100.00
38716;BME280;24833;49.324;8.694;2022-12-24T04:02:39;99479.75;;;8.76;100.00
38716;BME280;24833;49.324;8.694;2022-12-24T04:05:07;99484.09;;;8.77;100.00
38716;BME280;24833;49.324;8.694;2022-12-24T04:07:36;99489.41;;;8.77;100.00
38716;BME280;24833;49.324;8.694;2022-12-24T04:10:04;99491.88;;;8.78;100.00
38716;BME280;24833;49.324;8.694;2022-12-24T04:12:31;99498.84;;;8.79;100.00
38716;BME280;24833;49.324;8.694;2022-12-24T04:14:58;99514.81;;;8.79;100.00
38716;BME280;24833;49.324;8.694;2022-12-24T04:17:25;99526.94;;;8.82;100.00
38716;BME280;24833;49.324;8.694;2022-12-24T04:19:52;99518.94;;;8.82;100.00
38716;BME280;24833;49.324;8.694;2022-12-24T04:22:19;99509.09;;;8.82;100.00
38716;BME280;24833;49.324;8.694;2022-12-24T04:24:46;99512.44;;;8.84;100.00
38716;BME280;24833;49.324;8.694;2022-12-24T04:27:14;99517.75;;;8.84;100.00
38716;BME280;24833;49.324;8.694;2022-12-24T04:29:41;99516.72;;;8.85;100.00
38716;BME280;24833;49.324;8.694;2022-12-24T04:32:08;99517.34;;;8.87;100.00
38716;BME280;24833;49.324;8.694;2022-12-24T04:34:36;99528.63;;;8.89;100.00
38716;BME280;24833;49.324;8.694;2022-12-24T04:37:03;99531.28;;;8.89;100.00
38716;BME280;24833;49.324;8.694;2022-12-24T04:39:31;99537.28;;;8.91;100.00
38716;BME280;24833;49.324;8.694;2022-12-24T04:41:58;99536.25;;;8.92;100.00
38716;BME280;24833;49.324;8.694;2022-12-24T04:44:25;99547.34;;;8.96;100.00
38716;BME280;24833;49.324;8.694;2022-12-24T04:46:51;99556.78;;;8.98;100.00
38716;BME280;24833;49.324;8.694;2022-12-24T04:49:18;99548.41;;;9.01;100.00
38716;BME280;24833;49.324;8.694;2022-12-24T04:51:45;99551.72;;;9.04;100.00
38716;BME280;24833;49.324;8.694;2022-12-24T04:54:12;99529.00;;;9.08;100.00
38716;BME280;24833;49.324;8.694;2022-12-24T04:56:39;99540.31;;;9.10;100.00
38716;BME280;24833;49.324;8.694;2022-12-24T04:59:06;99540.94;;;9.12;100.00
38716;BME280;24833;49.324;8.694;2022-12-24T05:01:33;99544.22;;;9.14;100.00
38716;BME280;24833;49.324;8.694;2022-12-24T05:04:00;99534.03;;;9.17;100.00
38716;BME280;24833;49.324;8.694;2022-12-24T05:06:31;99534.03;;;9.17;100.00
38716;BME280;24833;49.324;8.694;2022-12-24T05:08:59;99540.59;;;9.21;100.00
38716;BME280;24833;49.324;8.694;2022-12-24T05:11:27;99525.63;;;9.20;100.00
38716;BME280;24833;49.324;8.694;2022-12-24T05:13:54;99535.09;;;9.23;100.00
38716;BME280;24833;49.324;8.694;2022-12-24T05:16:22;99537.75;;;9.23;100.00
38716;BME280;24833;49.324;8.694;2022-12-24T05:18:50;99541.41;;;9.22;100.00
38716;BME280;24833;49.324;8.694;2022-12-24T05:21:21;99542.22;;;9.22;100.00
38716;BME280;24833;49.324;8.694;2022-12-24T05:23:48;99540.59;;;9.21;100.00
38716;BME280;24833;49.324;8.694;2022-12-24T05:26:53;99546.13;;;9.20;100.00
38716;BME280;24833;49.324;8.694;2022-12-24T05:29:21;99552.47;;;9.19;100.00
38716;BME280;24833;49.324;8.694;2022-12-24T05:31:49;99550.81;;;9.18;100.00
38716;BME280;24833;49.324;8.694;2022-12-24T05:34:16;99545.50;;;9.18;100.00
38716;BME280;24833;49.324;8.694;2022-12-24T05:36:44;99555.13;;;9.19;100.00
38716;BME280;24833;49.324;8.694;2022-12-24T05:39:16;99553.50;;;9.18;100.00
38716;BME280;24833;49.324;8.694;2022-12-24T05:41:43;99557.78;;;9.19;100.00
38716;BME280;24833;49.324;8.694;2022-12-24T05:44:11;99556.16;;;9.18;100.00
38716;BME280;24833;49.324;8.694;2022-12-24T05:46:38;99555.34;;;9.17;100.00
38716;BME280;24833;49.324;8.694;2022-12-24T05:49:05;99563.31;;;9.17;100.00
38716;BME280;24833;49.324;8.694;2022-12-24T05:51:32;99568.44;;;9.19;100.00
38716;BME280;24833;49.324;8.694;2022-12-24T05:53:59;99561.47;;;9.18;100.00
38716;BME280;24833;49.324;8.694;2022-12-24T05:56:26;99566.16;;;9.16;100.00
38716;BME280;24833;49.324;8.694;2022-12-24T05:58:53;99581.31;;;9.15;100.00
38716;BME280;24833;49.324;8.694;2022-12-24T06:01:21;99572.50;;;9.15;100.00
38716;BME280;24833;49.324;8.694;2022-12-24T06:03:50;99572.34;;;9.16;100.00
38716;BME280;24833;49.324;8.694;2022-12-24T06:06:24;99572.34;;;9.16;100.00
38716;BME280;24833;49.324;8.694;2022-12-24T06:08:52;99574.16;;;9.16;100.00
38716;BME280;24833;49.324;8.694;2022-12-24T06:11:25;99574.16;;;9.16;100.00
38716;BME280;24833;49.324;8.694;2022-12-24T06:13:53;99579.31;;;9.17;100.00
38716;BME280;24833;49.324;8.694;2022-12-24T06:16:21;99579.31;;;9.17;100.00
38716;BME280;24833;49.324;8.694;2022-12-24T06:18:48;99594.47;;;9.17;100.00
38716;BME280;24833;49.324;8.694;2022-12-24T06:21:16;99593.44;;;9.18;100.00
38716;BME280;24833;49.324;8.694;2022-12-24T06:23:44;99596.94;;;9.18;100.00
38716;BME280;24833;49.324;8.694;2022-12-24T06:26:18;99608.22;;;9.20;100.00
38716;BME280;24833;49.324;8.694;2022-12-24T06:28:47;99608.22;;;9.20;100.00
38716;BME280;24833;49.324;8.694;2022-12-24T06:31:18;99610.06;;;9.20;100.00
38716;BME280;24833;49.324;8.694;2022-12-24T06:33:46;99607.41;;;9.20;100.00
38716;BME280;24833;49.324;8.694;2022-12-24T06:36:20;99609.25;;;9.19;100.00
38716;BME280;24833;49.324;8.694;2022-12-24T06:38:48;99611.06;;;9.19;100.00
38716;BME280;24833;49.324;8.694;2022-12-24T06:41:16;99610.06;;;9.20;100.00
38716;BME280;24833;49.324;8.694;2022-12-24T06:43:49;99611.06;;;9.19;100.00
38716;BME280;24833;49.324;8.694;2022-12-24T06:46:17;99612.09;;;9.18;100.00
38716;BME280;24833;49.324;8.694;2022-12-24T06:48:45;99612.09;;;9.18;100.00
38716;BME280;24833;49.324;8.694;2022-12-24T06:51:14;99619.25;;;9.17;100.00
38716;BME280;24833;49.324;8.694;2022-12-24T06:53:42;99604.09;;;9.18;100.00
38716;BME280;24833;49.324;8.694;2022-12-24T06:56:11;99612.28;;;9.16;100.00
38716;BME280;24833;49.324;8.694;2022-12-24T06:58:40;99619.44;;;9.16;100.00
38716;BME280;24833;49.324;8.694;2022-12-24T07:01:12;99619.44;;;9.16;100.00
38716;BME280;24833;49.324;8.694;2022-12-24T07:03:40;99625.78;;;9.15;100.00
38716;BME280;24833;49.324;8.694;2022-12-24T07:06:17;99630.28;;;9.14;100.00
38716;BME280;24833;49.324;8.694;2022-12-24T07:08:44;99632.75;;;9.16;100.00
38716;BME280;24833;49.324;8.694;2022-12-24T07:11:12;99648.09;;;9.14;100.00
38716;BME280;24833;49.324;8.694;2022-12-24T07:13:38;99650.78;;;9.14;100.00
38716;BME280;24833;49.324;8.694;2022-12-24T07:16:06;99663.06;;;9.15;100.00
38716;BME280;24833;49.324;8.694;2022-12-24T07:18:33;99661.44;;;9.14;100.00
38716;BME280;24833;49.324;8.694;2022-12-24T07:21:03;99660.81;;;9.12;100.00
38716;BME280;24833;49.324;8.694;2022-12-24T07:23:30;99662.44;;;9.13;100.00
38716;BME280;24833;49.324;8.694;2022-12-24T07:26:02;99656.28;;;9.12;100.00
38716;BME280;24833;49.324;8.694;2022-12-24T07:28:30;99665.09;;;9.13;100.00
38716;BME280;24833;49.324;8.694;2022-12-24T07:30:58;99669.63;;;9.12;100.00
38716;BME280;24833;49.324;8.694;2022-12-24T07:33:26;99664.28;;;9.12;100.00
38716;BME280;24833;49.324;8.694;2022-12-24T07:36:05;99674.13;;;9.12;100.00
38716;BME280;24833;49.324;8.694;2022-12-24T07:38:33;99667.97;;;9.11;100.00
38716;BME280;24833;49.324;8.694;2022-12-24T07:41:00;99678.63;;;9.11;100.00
38716;BME280;24833;49.324;8.694;2022-12-24T07:43:28;99675.13;;;9.11;100.00
38716;BME280;24833;49.324;8.694;2022-12-24T07:45:56;99674.13;;;9.12;100.00
38716;BME280;24833;49.324;8.694;2022-12-24T07:48:27;99678.63;;;9.11;100.00
38716;BME280;24833;49.324;8.694;2022-12-24T07:50:56;99680.47;;;9.11;100.00
38716;BME280;24833;49.324;8.694;2022-12-24T07:53:25;99684.97;;;9.10;100.00
38716;BME280;24833;49.324;8.694;2022-12-24T07:55:52;99669.81;;;9.11;100.00
38716;BME280;24833;49.324;8.694;2022-12-24T07:58:20;99681.47;;;9.10;100.00
38716;BME280;24833;49.324;8.694;2022-12-24T08:00:48;99680.81;;;9.08;100.00
38716;BME280;24833;49.324;8.694;2022-12-24T08:03:19;99679.81;;;9.09;100.00
38716;BME280;24833;49.324;8.694;2022-12-24T08:05:47;99675.50;;;9.08;100.00
38716;BME280;24833;49.324;8.694;2022-12-24T08:08:14;99686.16;;;9.08;100.00
38716;BME280;24833;49.324;8.694;2022-12-24T08:10:43;99686.16;;;9.08;100.00
38716;BME280;24833;49.324;8.694;2022-12-24T08:13:11;99677.34;;;9.07;100.00
38716;BME280;24833;49.324;8.694;2022-12-24T08:15:38;99678.16;;;9.08;100.00
38716;BME280;24833;49.324;8.694;2022-12-24T08:18:05;99693.31;;;9.07;100.00
38716;BME280;24833;49.324;8.694;2022-12-24T08:20:32;99691.47;;;9.08;100.00
38716;BME280;24833;49.324;8.694;2022-12-24T08:22:59;99695.16;;;9.07;100.00
38716;BME280;24833;49.324;8.694;2022-12-24T08:25:26;99700.28;;;9.08;100.00
38716;BME280;24833;49.324;8.694;2022-12-24T08:27:53;99700.28;;;9.08;100.00
38716;BME280;24833;49.324;8.694;2022-12-24T08:30:20;99704.44;;;9.11;100.00
38716;BME280;24833;49.324;8.694;2022-12-24T08:32:47;99705.06;;;9.13;100.00
38716;BME280;24833;49.324;8.694;2022-12-24T08:35:14;99714.06;;;9.12;100.00
38716;BME280;24833;49.324;8.694;2022-12-24T08:37:42;99710.41;;;9.13;100.00
38716;BME280;24833;49.324;8.694;2022-12-24T08:40:09;99704.06;;;9.14;100.00
38716;BME280;24833;49.324;8.694;2022-12-24T08:42:36;99701.03;;;9.17;100.00
38716;BME280;24833;49.324;8.694;2022-12-24T08:45:05;99702.00;;;9.16;100.00
38716;BME280;24833;49.324;8.694;2022-12-24T08:47:32;99704.31;;;9.19;100.00
38716;BME280;24833;49.324;8.694;2022-12-24T08:49:59;99703.94;;;9.22;100.00
38716;BME280;24833;49.324;8.694;2022-12-24T08:52:26;99704.38;;;9.25;100.00
38716;BME280;24833;49.324;8.694;2022-12-24T08:54:53;99705.84;;;9.28;100.00
38716;BME280;24833;49.324;8.694;2022-12-24T08:57:20;99690.31;;;9.32;100.00
38716;BME280;24833;49.324;8.694;2022-12-24T08:59:46;99703.44;;;9.33;100.00
38716;BME280;24833;49.324;8.694;2022-12-24T09:02:13;99704.88;;;9.36;100.00
38716;BME280;24833;49.324;8.694;2022-12-24T09:04:41;99711.69;;;9.38;100.00
38716;BME280;24833;49.324;8.694;2022-12-24T09:07:09;99715.00;;;9.40;100.00
38716;BME280;24833;49.324;8.694;2022-12-24T09:09:36;99724.63;;;9.41;100.00
38716;BME280;24833;49.324;8.694;2022-12-24T09:12:07;99726.28;;;9.42;100.00
38716;BME280;24833;49.324;8.694;2022-12-24T09:14:35;99729.59;;;9.44;100.00
38716;BME280;24833;49.324;8.694;2022-12-24T09:17:02;99721.41;;;9.46;100.00
38716;BME280;24833;49.324;8.694;2022-12-24T09:19:29;99725.72;;;9.47;100.00
38716;BME280;24833;49.324;8.694;2022-12-24T09:21:56;99731.50;;;9.50;100.00
38716;BME280;24833;49.324;8.694;2022-12-24T09:24:23;99736.44;;;9.53;100.00
38716;BME280;24833;49.324;8.694;2022-12-24T09:26:50;99731.94;;;9.54;100.00
38716;BME280;24833;49.324;8.694;2022-12-24T09:29:24;99746.75;;;9.57;100.00
38716;BME280;24833;49.324;8.694;2022-12-24T09:31:51;99760.72;;;9.59;100.00
38716;BME280;24833;49.324;8.694;2022-12-24T09:34:18;99768.50;;;9.60;100.00
38716;BME280;24833;49.324;8.694;2022-12-24T09:36:51;99757.47;;;9.63;100.00
38716;BME280;24833;49.324;8.694;2022-12-24T09:39:19;99763.25;;;9.67;100.00
38716;BME280;24833;49.324;8.694;2022-12-24T09:45:32;99767.63;;;9.74;100.00
38716;BME280;24833;49.324;8.694;2022-12-24T09:48:17;99775.44;;;9.76;100.00
38716;BME280;24833;49.324;8.694;2022-12-24T09:51:11;99783.06;;;9.79;100.00
38716;BME280;24833;49.324;8.694;2022-12-24T09:53:55;99781.84;;;9.81;100.00
38716;BME280;24833;49.324;8.694;2022-12-24T09:56:37;99790.94;;;9.87;100.00
38716;BME280;24833;49.324;8.694;2022-12-24T09:59:10;99793.22;;;9.90;100.00
38716;BME280;24833;49.324;8.694;2022-12-24T10:01:39;99794.47;;;9.94;100.00
38716;BME280;24833;49.324;8.694;2022-12-24T10:04:14;99789.00;;;10.02;100.00
38716;BME280;24833;49.324;8.694;2022-12-24T10:07:11;99793.59;;;10.08;100.00
38716;BME280;24833;49.324;8.694;2022-12-24T10:13:08;99782.69;;;10.25;100.00
38716;BME280;24833;49.324;8.694;2022-12-24T10:21:56;99793.94;;;10.48;100.00
38716;BME280;24833;49.324;8.694;2022-12-24T10:25:15;99798.94;;;10.58;100.00
38716;BME280;24833;49.324;8.694;2022-12-24T10:27:44;99812.72;;;10.61;100.00
38716;BME280;24833;49.324;8.694;2022-12-24T10:30:22;99821.81;;;10.67;100.00
38716;BME280;24833;49.324;8.694;2022-12-24T10:32:53;99822.44;;;10.69;100.00
38716;BME280;24833;49.324;8.694;2022-12-24T10:35:33;99826.56;;;10.72;100.00
38716;BME280;24833;49.324;8.694;2022-12-24T10:38:03;99832.75;;;10.72;100.00
38716;BME280;24833;49.324;8.694;2022-12-24T10:40:42;99825.78;;;10.78;100.00
38716;BME280;24833;49.324;8.694;2022-12-24T10:43:24;99827.03;;;10.82;100.00
38716;BME280;24833;49.324;8.694;2022-12-24T10:46:00;99831.34;;;10.83;100.00
38716;BME280;24833;49.324;8.694;2022-12-24T10:48:56;99825.88;;;10.91;100.00
38716;BME280;24833;49.324;8.694;2022-12-24T10:54:33;99831.69;;;11.01;100.00
38716;BME280;24833;49.324;8.694;2022-12-24T10:57:24;99815.28;;;11.04;100.00
38716;BME280;24833;49.324;8.694;2022-12-24T10:59:53;99810.91;;;11.03;100.00
38716;BME280;24833;49.324;8.694;2022-12-24T11:02:37;99809.94;;;11.04;100.00
38716;BME280;24833;49.324;8.694;2022-12-24T11:05:26;99804.78;;;11.09;100.00
38716;BME280;24833;49.324;8.694;2022-12-24T11:10:44;99805.88;;;11.22;100.00
38716;BME280;24833;49.324;8.694;2022-12-24T11:13:36;99813.53;;;11.31;100.00
38716;BME280;24833;49.324;8.694;2022-12-24T11:16:28;99812.94;;;11.36;100.00
38716;BME280;24833;49.324;8.694;2022-12-24T11:18:58;99814.81;;;11.42;100.00
38716;BME280;24833;49.324;8.694;2022-12-24T11:21:29;99802.50;;;11.48;100.00
38716;BME280;24833;49.324;8.694;2022-12-24T11:24:37;99801.06;;;11.52;100.00
38716;BME280;24833;49.324;8.694;2022-12-24T11:32:42;99815.72;;;11.69;100.00
38716;BME280;24833;49.324;8.694;2022-12-24T11:35:23;99809.16;;;11.71;100.00
38716;BME280;24833;49.324;8.694;2022-12-24T11:40:36;99801.13;;;11.71;100.00
38716;BME280;24833;49.324;8.694;2022-12-24T11:43:05;99801.53;;;11.68;100.00
38716;BME280;24833;49.324;8.694;2022-12-24T11:45:52;99795.75;;;11.65;100.00
38716;BME280;24833;49.324;8.694;2022-12-24T11:48:31;99790.81;;;11.62;100.00
38716;BME280;24833;49.324;8.694;2022-12-24T11:51:03;99786.47;;;11.61;100.00
38716;BME280;24833;49.324;8.694;2022-12-24T11:53:45;99784.84;;;11.60;100.00
38716;BME280;24833;49.324;8.694;2022-12-24T11:59:06;99784.00;;;11.53;100.00
38716;BME280;24833;49.324;8.694;2022-12-24T12:01:46;99795.91;;;11.50;100.00
38716;BME280;24833;49.324;8.694;2022-12-24T12:04:21;99787.03;;;11.43;100.00
38716;BME280;24833;49.324;8.694;2022-12-24T12:07:05;99801.22;;;11.37;100.00
38716;BME280;24833;49.324;8.694;2022-12-24T12:09:44;99793.38;;;11.35;100.00
38716;BME280;24833;49.324;8.694;2022-12-24T12:12:25;99791.94;;;11.33;100.00
38716;BME280;24833;49.324;8.694;2022-12-24T12:18:19;99778.59;;;11.33;100.00
38716;BME280;24833;49.324;8.694;2022-12-24T12:20:53;99791.13;;;11.32;100.00
38716;BME280;24833;49.324;8.694;2022-12-24T12:23:57;99788.66;;;11.31;100.00
38716;BME280;24833;49.324;8.694;2022-12-24T12:26:30;99787.00;;;11.30;100.00
38716;BME280;24833;49.324;8.694;2022-12-24T12:29:24;99794.41;;;11.28;100.00
38716;BME280;24833;49.324;8.694;2022-12-24T12:32:03;99799.53;;;11.29;100.00
38716;BME280;24833;49.324;8.694;2022-12-24T12:34:44;99809.22;;;11.30;100.00
38716;BME280;24833;49.324;8.694;2022-12-24T12:37:30;99812.06;;;11.29;100.00
38716;BME280;24833;49.324;8.694;2022-12-24T12:40:00;99794.41;;;11.28;100.00
38716;BME280;24833;49.324;8.694;2022-12-24T12:42:38;99811.47;;;11.27;100.00
38716;BME280;24833;49.324;8.694;2022-12-24T12:48:03;99811.69;;;11.32;100.00
38716;BME280;24833;49.324;8.694;2022-12-24T12:56:30;99824.28;;;11.38;100.00
38716;BME280;24833;49.324;8.694;2022-12-24T12:59:32;99817.66;;;11.34;100.00
38716;BME280;24833;49.324;8.694;2022-12-24T13:20:54;99821.16;;;11.34;100.00
38716;BME280;24833;49.324;8.694;2022-12-24T13:23:23;99826.50;;;11.34;100.00
38716;BME280;24833;49.324;8.694;2022-12-24T13:25:53;99833.09;;;11.32;100.00
38716;BME280;24833;49.324;8.694;2022-12-24T13:33:56;99826.09;;;11.31;100.00
38716;BME280;24833;49.324;8.694;2022-12-24T13:36:24;99836.34;;;11.27;100.00
38716;BME280;24833;49.324;8.694;2022-12-24T13:39:18;99843.75;;;11.25;100.00
38716;BME280;24833;49.324;8.694;2022-12-24T13:41:51;99840.63;;;11.22;100.00
38716;BME280;24833;49.324;8.694;2022-12-24T13:44:22;99852.75;;;11.17;100.00
38716;BME280;24833;49.324;8.694;2022-12-24T13:49:39;99852.72;;;11.11;100.00
38716;BME280;24833;49.324;8.694;2022-12-24T13:54:44;99843.22;;;11.08;100.00
38716;BME280;24833;49.324;8.694;2022-12-24T14:08:26;99834.50;;;10.93;100.00
38716;BME280;24833;49.324;8.694;2022-12-24T14:16:29;99829.16;;;10.93;100.00
38716;BME280;24833;49.324;8.694;2022-12-24T14:22:00;99828.56;;;10.91;100.00
38716;BME280;24833;49.324;8.694;2022-12-24T14:24:35;99830.19;;;10.92;100.00
38716;BME280;24833;49.324;8.694;2022-12-24T14:28:02;99837.19;;;10.93;100.00
38716;BME280;24833;49.324;8.694;2022-12-24T14:30:27;99840.88;;;10.92;100.00
38716;BME280;24833;49.324;8.694;2022-12-24T14:32:55;99838.22;;;10.92;100.00
38716;BME280;24833;49.324;8.694;2022-12-24T14:35:37;99831.22;;;10.91;100.00
38716;BME280;24833;49.324;8.694;2022-12-24T14:38:12;99825.22;;;10.89;100.00
38716;BME280;24833;49.324;8.694;2022-12-24T14:52:09;99828.06;;;10.81;100.00
38716;BME280;24833;49.324;8.694;2022-12-24T14:54:59;99834.63;;;10.78;100.00
38716;BME280;24833;49.324;8.694;2022-12-24T14:57:26;99839.31;;;10.76;100.00
38716;BME280;24833;49.324;8.694;2022-12-24T14:59:56;99841.16;;;10.76;100.00
38716;BME280;24833;49.324;8.694;2022-12-24T15:05:15;99833.56;;;10.73;100.00
38716;BME280;24833;49.324;8.694;2022-12-24T15:08:06;99832.13;;;10.70;100.00
38716;BME280;24833;49.324;8.694;2022-12-24T15:10:38;99842.97;;;10.69;100.00
38716;BME280;24833;49.324;8.694;2022-12-24T15:15:52;99845.03;;;10.67;100.00
38716;BME280;24833;49.324;8.694;2022-12-24T15:18:24;99849.75;;;10.64;100.00
38716;BME280;24833;49.324;8.694;2022-12-24T15:20:56;99847.06;;;10.64;100.00
38716;BME280;24833;49.324;8.694;2022-12-24T15:23:34;99850.75;;;10.63;100.00
38716;BME280;24833;49.324;8.694;2022-12-24T15:26:28;99854.44;;;10.62;100.00
38716;BME280;24833;49.324;8.694;2022-12-24T15:28:58;99856.47;;;10.60;100.00
38716;BME280;24833;49.324;8.694;2022-12-24T15:31:30;99853.81;;;10.60;100.00
38716;BME280;24833;49.324;8.694;2022-12-24T15:33:58;99847.84;;;10.58;100.00
38716;BME280;24833;49.324;8.694;2022-12-24T15:36:34;99856.06;;;10.57;100.00